Main page
METAR-TAF:

METAR-TAF

Airports :

Menorca Airport

Minorca, Spain

latitude: 39-52N, longitude: 004-14E, elevation: 87 m

Current weather observation

The report was made 29 minutes ago, at 12:30 UTC
Wind 18 kt from the North, varying between North/Northwest and Northeast
Temperature 29°C
Humidity 48%
Pressure 1017 hPa
Visibility 10 km or more
no clouds below 1500 m and no cumulonimbus

METAR: LEMH 201230Z 01018KT 340V040 CAVOK 29/17 Q1017

Time: 14:59 (12:59 UTC)

Forecast

The report was made 4 hours and 59 minutes ago, at 08:00 UTC
Forecast valid from 20 at 09 UTC to 21 at 09 UTC
Wind 12 kt from the North
Visibility 10 km or more
Few clouds at a height of 3000 ft
Temporary
from 20 at 09 UTC to 20 at 16 UTC
Wind 18 kt from the North with gusts up to 28 kt

TAF: LEMH 200800Z 2009/2109 36012KT 9999 FEW030 TX31/2012Z TN22/2105Z TEMPO 2009/2016 36018G28KT

Weather observations and forecasts of more than 4000 airports (METAR and TAF reports).

The available stations are represented by yellow and red dots on the map.

Hover mouse over dot to see the name of the station.

Then click to see weather observations and forecasts.

To change the map : click on the green buttons with a black cross to zoom in, on the green button with a dash to zoom out, or on the green arrows for adjacent maps.


METAR-TAF: